createdAt,value
2017-05-26T00:00:07.149Z,16.66
2017-05-26T00:01:07.876Z,16.57
2017-05-26T00:02:08.851Z,16.53
2017-05-26T00:03:09.577Z,16.56
2017-05-26T00:04:10.302Z,16.53
2017-05-26T00:05:11.027Z,16.56
2017-05-26T00:06:11.754Z,16.51
2017-05-26T00:07:12.727Z,16.50
2017-05-26T00:08:13.454Z,16.51
2017-05-26T00:09:14.179Z,16.42
2017-05-26T00:10:15.168Z,16.39
2017-05-26T00:11:15.920Z,16.38
2017-05-26T00:12:16.894Z,16.39
2017-05-26T00:13:17.623Z,16.38
2017-05-26T00:14:18.373Z,16.33
2017-05-26T00:15:19.098Z,16.33
2017-05-26T00:16:19.847Z,16.31
2017-05-26T00:17:20.824Z,16.26
2017-05-26T00:18:21.574Z,16.32
2017-05-26T00:19:22.299Z,16.26
2017-05-26T00:20:23.023Z,16.29
2017-05-26T00:21:23.747Z,16.28
2017-05-26T00:22:24.745Z,16.31
2017-05-26T00:23:25.467Z,16.20
2017-05-26T00:24:26.195Z,16.20
2017-05-26T00:25:26.920Z,16.20
2017-05-26T00:26:27.642Z,16.17
2017-05-26T00:27:28.645Z,16.17
2017-05-26T00:28:29.369Z,16.20
2017-05-26T00:29:30.094Z,16.09
2017-05-26T00:30:30.817Z,16.04
2017-05-26T00:31:31.543Z,16.05
2017-05-26T00:32:32.570Z,16.13
2017-05-26T00:33:33.321Z,16.12
2017-05-26T00:34:34.046Z,16.10
2017-05-26T00:35:34.773Z,16.01
2017-05-26T00:36:35.495Z,16.09
2017-05-26T00:37:36.521Z,16.00
2017-05-26T00:38:37.245Z,15.98
2017-05-26T00:39:37.969Z,16.00
2017-05-26T00:40:38.693Z,15.98
2017-05-26T00:41:39.419Z,16.01
2017-05-26T00:42:40.442Z,15.95
2017-05-26T00:43:41.169Z,15.97
2017-05-26T00:44:41.894Z,15.92
2017-05-26T00:45:42.618Z,15.92
2017-05-26T00:46:43.367Z,15.88
2017-05-26T00:47:44.394Z,15.88
2017-05-26T00:48:45.119Z,15.86
2017-05-26T00:49:45.843Z,15.90
2017-05-26T00:50:46.567Z,15.80
2017-05-26T00:51:47.298Z,15.84
2017-05-26T00:52:48.270Z,15.80
2017-05-26T00:53:48.991Z,15.80
2017-05-26T00:54:49.719Z,15.82
2017-05-26T00:55:50.444Z,15.77
2017-05-26T00:56:51.192Z,15.75
2017-05-26T00:57:52.168Z,15.76
2017-05-26T00:58:52.892Z,15.73
2017-05-26T00:59:53.618Z,15.73
2017-05-26T01:00:54.342Z,15.61
2017-05-26T01:01:55.071Z,15.67
2017-05-26T01:02:56.047Z,15.62
2017-05-26T01:03:56.773Z,15.65
2017-05-26T01:04:57.499Z,15.64
2017-05-26T01:05:58.225Z,15.75
2017-05-26T01:06:58.975Z,15.68
2017-05-26T01:07:59.953Z,15.65
2017-05-26T01:09:00.680Z,15.62
2017-05-26T01:10:01.403Z,15.59
2017-05-26T01:11:02.127Z,15.61
2017-05-26T01:12:02.856Z,15.57
2017-05-26T01:13:03.832Z,15.55
2017-05-26T01:14:04.557Z,15.55
2017-05-26T01:15:05.282Z,15.49
2017-05-26T01:16:06.007Z,15.54
2017-05-26T01:17:06.732Z,15.55
2017-05-26T01:18:07.730Z,15.57
2017-05-26T01:19:08.455Z,15.47
2017-05-26T01:20:09.183Z,15.47
2017-05-26T01:21:09.907Z,15.44
2017-05-26T01:22:10.632Z,15.42
2017-05-26T01:23:11.606Z,15.40
2017-05-26T01:24:12.333Z,15.47
2017-05-26T01:25:13.061Z,15.43
2017-05-26T01:26:13.786Z,15.46
2017-05-26T01:27:14.513Z,15.44
2017-05-26T01:28:15.514Z,15.40
2017-05-26T01:29:16.237Z,15.46
2017-05-26T01:30:16.963Z,15.40
2017-05-26T01:31:17.686Z,15.36
2017-05-26T01:32:18.413Z,15.42
2017-05-26T01:33:19.414Z,15.29
2017-05-26T01:34:20.140Z,15.28
2017-05-26T01:35:20.865Z,15.28
2017-05-26T01:36:21.587Z,15.31
2017-05-26T01:37:22.309Z,15.27
2017-05-26T01:38:23.285Z,15.25
2017-05-26T01:39:24.014Z,15.21
2017-05-26T01:40:24.738Z,15.21
2017-05-26T01:41:25.461Z,15.27
2017-05-26T01:42:26.187Z,15.18
2017-05-26T01:43:27.161Z,15.22
2017-05-26T01:44:27.886Z,15.22
2017-05-26T01:45:28.613Z,15.17
2017-05-26T01:46:29.338Z,15.15
2017-05-26T01:47:30.061Z,15.17
2017-05-26T01:48:31.038Z,15.10
2017-05-26T01:49:31.764Z,15.04
2017-05-26T01:50:32.490Z,15.10
2017-05-26T01:51:33.215Z,15.07
2017-05-26T01:52:33.964Z,15.07
2017-05-26T01:53:34.963Z,15.07
2017-05-26T01:54:35.688Z,15.04
2017-05-26T01:55:36.412Z,15.04
2017-05-26T01:56:37.139Z,14.96
2017-05-26T01:57:37.864Z,14.97
2017-05-26T01:58:38.843Z,14.96
2017-05-26T01:59:39.566Z,14.97
2017-05-26T02:00:40.294Z,14.94
2017-05-26T02:01:41.023Z,14.92
2017-05-26T02:02:41.744Z,14.97
2017-05-26T02:03:42.716Z,14.97
2017-05-26T02:04:43.443Z,14.99
2017-05-26T02:05:44.167Z,14.92
2017-05-26T02:06:44.901Z,14.86
2017-05-26T02:07:45.615Z,14.94
2017-05-26T02:08:46.613Z,14.88
2017-05-26T02:09:47.339Z,14.91
2017-05-26T02:10:48.061Z,14.89
2017-05-26T02:11:48.785Z,14.82
2017-05-26T02:12:49.509Z,14.84
2017-05-26T02:13:50.483Z,14.82
2017-05-26T02:14:51.207Z,14.82
2017-05-26T02:15:51.932Z,14.85
2017-05-26T02:16:52.659Z,14.84
2017-05-26T02:17:53.409Z,14.77
2017-05-26T02:18:54.382Z,14.63
2017-05-26T02:19:55.108Z,14.65
2017-05-26T02:20:55.858Z,14.66
2017-05-26T02:21:56.582Z,14.68
2017-05-26T02:22:57.309Z,14.69
2017-05-26T02:23:58.286Z,14.58
2017-05-26T02:24:59.017Z,14.62
2017-05-26T02:25:59.737Z,14.63
2017-05-26T02:27:00.462Z,14.53
2017-05-26T02:28:01.189Z,14.59
2017-05-26T02:29:02.163Z,14.54
2017-05-26T02:30:02.890Z,14.54
2017-05-26T02:31:03.611Z,14.55
2017-05-26T02:32:04.335Z,14.48
2017-05-26T02:33:05.063Z,14.50
2017-05-26T02:34:06.039Z,14.47
2017-05-26T02:35:06.771Z,14.53
2017-05-26T02:36:07.489Z,14.44
2017-05-26T02:37:08.214Z,14.51
2017-05-26T02:38:08.935Z,14.40
2017-05-26T02:39:09.913Z,14.41
2017-05-26T02:40:10.637Z,14.37
2017-05-26T02:41:11.367Z,14.41
2017-05-26T02:42:12.092Z,14.43
2017-05-26T02:43:12.810Z,14.36
2017-05-26T02:44:13.786Z,14.29
2017-05-26T02:45:14.509Z,14.35
2017-05-26T02:46:15.237Z,14.35
2017-05-26T02:47:15.962Z,14.25
2017-05-26T02:48:16.713Z,14.33
2017-05-26T02:49:17.689Z,14.22
2017-05-26T02:50:18.417Z,14.28
2017-05-26T02:51:19.138Z,14.17
2017-05-26T02:52:19.864Z,14.20
2017-05-26T02:53:20.587Z,14.20
2017-05-26T02:54:21.563Z,14.20
2017-05-26T02:55:22.291Z,14.25
2017-05-26T02:56:23.017Z,14.23
2017-05-26T02:57:23.744Z,14.22
2017-05-26T02:58:24.470Z,14.08
2017-05-26T02:59:25.447Z,14.11
2017-05-26T03:00:26.171Z,14.15
2017-05-26T03:01:26.895Z,14.17
2017-05-26T03:02:27.622Z,14.10
2017-05-26T03:03:28.350Z,14.10
2017-05-26T03:04:29.326Z,14.03
2017-05-26T03:05:30.055Z,13.99
2017-05-26T03:06:30.801Z,14.05
2017-05-26T03:07:31.528Z,14.08
2017-05-26T03:08:32.278Z,14.10
2017-05-26T03:09:33.253Z,14.04
2017-05-26T03:10:33.977Z,14.03
2017-05-26T03:11:34.705Z,13.99
2017-05-26T03:12:35.455Z,14.03
2017-05-26T03:13:36.180Z,14.05
2017-05-26T03:14:37.156Z,13.96
2017-05-26T03:15:37.884Z,14.03
2017-05-26T03:16:38.609Z,14.04
2017-05-26T03:17:39.337Z,14.04
2017-05-26T03:18:40.086Z,14.05
2017-05-26T03:19:41.063Z,14.04
2017-05-26T03:20:41.791Z,14.00
2017-05-26T03:21:42.518Z,14.07
2017-05-26T03:22:43.245Z,13.99
2017-05-26T03:23:43.973Z,14.04
2017-05-26T03:24:44.950Z,13.96
2017-05-26T03:25:45.675Z,14.00
2017-05-26T03:26:46.410Z,13.99
2017-05-26T03:27:47.130Z,13.92
2017-05-26T03:28:47.858Z,13.92
2017-05-26T03:29:48.836Z,13.93
2017-05-26T03:30:49.565Z,13.93
2017-05-26T03:31:50.319Z,13.95
2017-05-26T03:32:51.045Z,13.96
2017-05-26T03:33:51.773Z,13.95
2017-05-26T03:34:52.752Z,13.92
2017-05-26T03:35:53.480Z,13.90
2017-05-26T03:36:54.209Z,13.93
2017-05-26T03:37:54.935Z,13.97
2017-05-26T03:38:55.665Z,13.97
2017-05-26T03:39:56.646Z,13.92
2017-05-26T03:40:57.394Z,13.97
2017-05-26T03:41:58.123Z,13.96
2017-05-26T03:42:58.853Z,13.89
2017-05-26T03:43:59.585Z,13.96
2017-05-26T03:45:00.569Z,13.96
2017-05-26T03:46:01.319Z,13.97
2017-05-26T03:47:02.049Z,13.97
2017-05-26T03:48:02.801Z,13.95
2017-05-26T03:49:03.528Z,13.92
2017-05-26T03:50:04.508Z,13.96
2017-05-26T03:51:05.234Z,13.96
2017-05-26T03:52:05.963Z,14.04
2017-05-26T03:53:06.695Z,14.05
2017-05-26T03:54:07.421Z,14.00
2017-05-26T03:55:08.402Z,13.99
2017-05-26T03:56:09.130Z,14.10
2017-05-26T03:57:09.859Z,14.12
2017-05-26T03:58:10.586Z,14.15
2017-05-26T03:59:11.317Z,14.11
2017-05-26T04:00:12.301Z,14.14
2017-05-26T04:01:13.023Z,14.12
2017-05-26T04:02:13.753Z,14.28
2017-05-26T04:03:14.485Z,14.18
2017-05-26T04:04:15.275Z,14.25
2017-05-26T04:05:16.245Z,14.23
2017-05-26T04:06:16.999Z,14.32
2017-05-26T04:07:17.728Z,14.33
2017-05-26T04:08:18.457Z,14.28
2017-05-26T04:09:19.188Z,14.29
2017-05-26T04:10:20.170Z,14.35
2017-05-26T04:11:20.900Z,14.35
2017-05-26T04:12:21.630Z,14.43
2017-05-26T04:13:22.358Z,14.43
2017-05-26T04:14:23.088Z,14.44
2017-05-26T04:15:24.070Z,14.44
2017-05-26T04:16:24.802Z,14.37
2017-05-26T04:17:25.532Z,14.50
2017-05-26T04:18:26.262Z,14.50
2017-05-26T04:19:26.991Z,14.51
2017-05-26T04:20:27.974Z,14.48
2017-05-26T04:21:28.703Z,14.50
2017-05-26T04:22:29.438Z,14.48
2017-05-26T04:23:30.161Z,14.48
2017-05-26T04:24:30.893Z,14.41
2017-05-26T04:25:31.871Z,14.51
2017-05-26T04:26:32.603Z,14.51
2017-05-26T04:27:33.334Z,14.59
2017-05-26T04:28:34.067Z,14.55
2017-05-26T04:29:34.795Z,14.66
2017-05-26T04:30:35.776Z,14.58
2017-05-26T04:31:36.510Z,14.65
2017-05-26T04:32:37.268Z,14.60
2017-05-26T04:33:37.998Z,14.68
2017-05-26T04:34:38.755Z,14.60
2017-05-26T04:35:39.736Z,14.66
2017-05-26T04:36:40.465Z,14.70
2017-05-26T04:37:41.198Z,14.68
2017-05-26T04:38:41.925Z,14.70
2017-05-26T04:39:42.658Z,14.78
2017-05-26T04:40:43.637Z,14.79
2017-05-26T04:41:44.367Z,14.84
2017-05-26T04:42:45.098Z,14.78
2017-05-26T04:43:45.853Z,14.86
2017-05-26T04:44:46.584Z,14.82
2017-05-26T04:45:47.562Z,14.89
2017-05-26T04:46:48.292Z,15.02
2017-05-26T04:47:49.024Z,15.06
2017-05-26T04:48:49.756Z,15.06
2017-05-26T04:49:50.487Z,15.07
2017-05-26T04:50:51.467Z,15.06
2017-05-26T04:51:52.198Z,15.10
2017-05-26T04:52:52.932Z,15.21
2017-05-26T04:53:53.659Z,15.22
2017-05-26T04:54:54.393Z,15.21
2017-05-26T04:55:55.400Z,15.31
2017-05-26T04:56:56.128Z,15.29
2017-05-26T04:57:56.862Z,15.44
2017-05-26T04:58:57.594Z,15.42
2017-05-26T04:59:58.327Z,15.44
2017-05-26T05:00:59.306Z,15.52
2017-05-26T05:02:00.040Z,15.57
2017-05-26T05:03:00.773Z,15.61
2017-05-26T05:04:01.504Z,15.65
2017-05-26T05:05:02.234Z,15.62
2017-05-26T05:06:03.219Z,15.68
2017-05-26T05:07:03.973Z,15.64
2017-05-26T05:08:04.704Z,15.70
2017-05-26T05:09:05.435Z,15.73
2017-05-26T05:10:06.168Z,15.73
2017-05-26T05:11:07.151Z,15.77
2017-05-26T05:12:07.883Z,15.84
2017-05-26T05:13:08.617Z,15.82
2017-05-26T05:14:09.350Z,15.83
2017-05-26T05:15:10.081Z,15.92
2017-05-26T05:16:11.065Z,16.02
2017-05-26T05:17:11.795Z,15.97
2017-05-26T05:18:12.530Z,16.10
2017-05-26T05:19:13.263Z,16.12
2017-05-26T05:20:13.994Z,16.23
2017-05-26T05:21:14.979Z,16.31
2017-05-26T05:22:15.710Z,16.33
2017-05-26T05:23:16.444Z,16.35
2017-05-26T05:24:17.177Z,16.49
2017-05-26T05:25:17.912Z,16.50
2017-05-26T05:26:18.894Z,16.54
2017-05-26T05:27:19.627Z,16.60
2017-05-26T05:28:20.357Z,16.64
2017-05-26T05:29:21.093Z,16.66
2017-05-26T05:30:21.829Z,16.71
2017-05-26T05:31:22.836Z,16.74
2017-05-26T05:32:23.568Z,16.65
2017-05-26T05:33:24.300Z,16.81
2017-05-26T05:34:25.031Z,16.84
2017-05-26T05:35:25.764Z,16.83
2017-05-26T05:36:26.747Z,16.83
2017-05-26T05:37:27.504Z,17.05
2017-05-26T05:38:28.237Z,17.04
2017-05-26T05:39:28.968Z,16.94
2017-05-26T05:40:29.702Z,17.02
2017-05-26T05:41:30.685Z,17.04
2017-05-26T05:42:31.419Z,17.02
2017-05-26T05:43:32.150Z,17.06
2017-05-26T05:44:32.885Z,17.22
2017-05-26T05:45:33.619Z,17.12
2017-05-26T05:46:34.601Z,17.22
2017-05-26T05:47:35.333Z,17.30
2017-05-26T05:48:36.068Z,17.27
2017-05-26T05:49:36.800Z,17.31
2017-05-26T05:50:37.530Z,17.26
2017-05-26T05:51:38.515Z,17.20
2017-05-26T05:52:39.250Z,17.31
2017-05-26T05:53:39.990Z,17.20
2017-05-26T05:54:40.712Z,17.16
2017-05-26T05:55:41.445Z,17.20
2017-05-26T05:56:42.429Z,17.22
2017-05-26T05:57:43.164Z,17.24
2017-05-26T05:58:43.895Z,17.20
2017-05-26T05:59:44.628Z,17.20
2017-05-26T06:00:45.360Z,17.24
2017-05-26T06:01:46.343Z,17.31
2017-05-26T06:02:47.076Z,17.36
2017-05-26T06:03:47.833Z,17.34
2017-05-26T06:04:48.564Z,17.42
2017-05-26T06:05:49.296Z,17.52
2017-05-26T06:06:50.279Z,17.41
2017-05-26T06:07:51.014Z,17.38
2017-05-26T06:08:51.743Z,17.38
2017-05-26T06:09:52.481Z,17.38
2017-05-26T06:10:53.212Z,17.42
2017-05-26T06:11:54.194Z,17.48
2017-05-26T06:12:54.930Z,17.59
2017-05-26T06:13:55.665Z,17.52
2017-05-26T06:14:56.407Z,17.51
2017-05-26T06:15:57.153Z,17.51
2017-05-26T06:16:58.138Z,17.41
2017-05-26T06:17:58.874Z,17.57
2017-05-26T06:18:59.605Z,17.60
2017-05-26T06:20:00.340Z,17.65
2017-05-26T06:21:01.073Z,17.65
2017-05-26T06:22:02.059Z,17.65
2017-05-26T06:23:02.789Z,17.64
2017-05-26T06:24:03.523Z,17.64
2017-05-26T06:25:04.259Z,17.79
2017-05-26T06:26:04.990Z,17.79
2017-05-26T06:27:05.975Z,17.79
2017-05-26T06:28:06.706Z,17.83
2017-05-26T06:29:07.439Z,17.87
2017-05-26T06:30:08.174Z,18.00
2017-05-26T06:31:08.905Z,18.10
2017-05-26T06:32:09.890Z,18.08
2017-05-26T06:33:10.623Z,18.22
2017-05-26T06:34:11.357Z,18.34
2017-05-26T06:35:12.116Z,18.37
2017-05-26T06:36:12.869Z,18.44
2017-05-26T06:37:13.855Z,18.56
2017-05-26T06:38:14.586Z,18.66
2017-05-26T06:39:15.323Z,18.70
2017-05-26T06:40:16.056Z,18.66
2017-05-26T06:41:16.791Z,18.60
2017-05-26T06:42:17.775Z,18.80
2017-05-26T06:43:18.504Z,18.90
2017-05-26T06:44:19.241Z,18.83
2017-05-26T06:45:19.974Z,18.84
2017-05-26T06:46:20.710Z,18.92
2017-05-26T06:47:21.691Z,18.92
2017-05-26T06:48:22.423Z,18.99
2017-05-26T06:49:23.157Z,19.12
2017-05-26T06:50:23.892Z,19.15
2017-05-26T06:51:24.625Z,19.22
2017-05-26T06:52:25.613Z,19.31
2017-05-26T06:53:26.349Z,19.31
2017-05-26T06:54:27.081Z,19.24
2017-05-26T06:55:27.818Z,19.27
2017-05-26T06:56:28.552Z,19.29
2017-05-26T06:57:29.538Z,19.41
2017-05-26T06:58:30.270Z,19.48
2017-05-26T06:59:31.005Z,19.55
2017-05-26T07:00:31.740Z,19.67
2017-05-26T07:01:32.475Z,19.64
2017-05-26T07:02:33.482Z,19.73
2017-05-26T07:03:34.215Z,19.74
2017-05-26T07:04:34.951Z,19.81
2017-05-26T07:05:35.685Z,19.86
2017-05-26T07:06:36.415Z,19.91
2017-05-26T07:07:37.427Z,19.95
2017-05-26T07:08:38.157Z,20.10
2017-05-26T07:09:38.893Z,20.10
2017-05-26T07:10:39.623Z,20.31
2017-05-26T07:11:40.359Z,20.40
2017-05-26T07:12:41.343Z,20.29
2017-05-26T07:13:42.076Z,20.10
2017-05-26T07:14:42.815Z,19.99
2017-05-26T07:15:43.548Z,19.91
2017-05-26T07:16:44.280Z,19.82
2017-05-26T07:17:45.265Z,19.81
2017-05-26T07:18:46.002Z,19.71
2017-05-26T07:19:46.733Z,19.63
2017-05-26T07:20:47.466Z,19.81
2017-05-26T07:21:48.198Z,19.96
2017-05-26T07:22:49.181Z,20.00
2017-05-26T07:23:49.915Z,20.09
2017-05-26T07:24:50.650Z,20.18
2017-05-26T07:25:51.413Z,20.40
2017-05-26T07:26:52.174Z,20.59
2017-05-26T07:27:53.162Z,20.74
2017-05-26T07:28:53.900Z,20.84
2017-05-26T07:29:54.640Z,20.93
2017-05-26T07:30:55.377Z,21.06
2017-05-26T07:31:56.119Z,21.05
2017-05-26T07:32:57.106Z,20.99
2017-05-26T07:33:57.846Z,21.07
2017-05-26T07:34:58.615Z,21.11
2017-05-26T07:35:59.357Z,21.15
2017-05-26T07:37:00.099Z,21.42
2017-05-26T07:38:01.089Z,21.42
2017-05-26T07:39:01.831Z,21.39
2017-05-26T07:40:02.578Z,21.37
2017-05-26T07:41:03.320Z,21.60
2017-05-26T07:42:04.065Z,21.77
2017-05-26T07:43:05.057Z,21.96
2017-05-26T07:44:05.797Z,22.22
2017-05-26T07:45:06.539Z,22.41
2017-05-26T07:46:07.282Z,22.54
2017-05-26T07:47:08.022Z,22.81
2017-05-26T07:48:09.012Z,22.84
2017-05-26T07:49:09.778Z,23.17
2017-05-26T07:50:10.523Z,23.27
2017-05-26T07:51:11.262Z,23.44
2017-05-26T07:52:12.006Z,23.63
2017-05-26T07:53:12.999Z,23.83
2017-05-26T07:54:13.747Z,23.87
2017-05-26T07:55:14.484Z,23.78
2017-05-26T07:56:15.226Z,23.84
2017-05-26T07:57:15.995Z,23.95
2017-05-26T07:58:16.987Z,24.01
2017-05-26T07:59:17.731Z,23.84
2017-05-26T08:00:18.474Z,23.71
2017-05-26T08:01:19.219Z,23.44
2017-05-26T08:02:19.961Z,23.65
2017-05-26T08:03:20.955Z,23.37
2017-05-26T08:04:21.700Z,23.41
2017-05-26T08:05:22.447Z,23.41
2017-05-26T08:06:23.192Z,23.06
2017-05-26T08:07:23.961Z,23.34
2017-05-26T08:08:24.957Z,23.62
2017-05-26T08:09:25.701Z,23.78
2017-05-26T08:10:26.443Z,24.06
2017-05-26T08:11:27.187Z,24.30
2017-05-26T08:12:27.933Z,24.61
2017-05-26T08:13:28.929Z,24.81
2017-05-26T08:14:29.672Z,25.06
2017-05-26T08:15:30.419Z,25.22
2017-05-26T08:16:31.165Z,25.36
2017-05-26T08:17:31.910Z,25.41
2017-05-26T08:18:32.905Z,25.51
2017-05-26T08:19:33.652Z,25.65
2017-05-26T08:20:34.396Z,25.50
2017-05-26T08:21:35.141Z,25.26
2017-05-26T08:22:35.886Z,25.26
2017-05-26T08:23:36.881Z,25.65
2017-05-26T08:24:37.626Z,25.77
2017-05-26T08:25:38.372Z,25.81
2017-05-26T08:26:39.118Z,25.96
2017-05-26T08:27:39.866Z,26.38
2017-05-26T08:28:40.867Z,26.60
2017-05-26T08:29:41.615Z,26.51
2017-05-26T08:30:42.366Z,26.37
2017-05-26T08:31:43.121Z,26.44
2017-05-26T08:32:43.869Z,26.58
2017-05-26T08:33:44.874Z,26.56
2017-05-26T08:34:45.627Z,26.93
2017-05-26T08:35:46.376Z,26.83
2017-05-26T08:36:47.133Z,26.47
2017-05-26T08:37:47.883Z,26.36
2017-05-26T08:38:48.892Z,26.59
2017-05-26T08:39:49.649Z,26.62
2017-05-26T08:40:50.409Z,26.75
2017-05-26T08:41:51.164Z,26.81
2017-05-26T08:42:51.917Z,27.02
2017-05-26T08:43:52.928Z,27.20
2017-05-26T08:44:53.681Z,27.52
2017-05-26T08:45:54.440Z,27.60
2017-05-26T08:46:55.195Z,27.47
2017-05-26T08:47:55.949Z,26.95
2017-05-26T08:48:56.975Z,27.02
2017-05-26T08:49:57.728Z,27.02
2017-05-26T08:50:58.482Z,27.03
2017-05-26T08:51:59.235Z,26.29
2017-05-26T08:53:00.006Z,26.00
2017-05-26T08:54:00.998Z,26.13
2017-05-26T08:55:01.750Z,26.23
2017-05-26T08:56:02.504Z,25.95
2017-05-26T08:57:03.258Z,25.44
2017-05-26T08:58:04.013Z,25.88
2017-05-26T08:59:05.017Z,26.00
2017-05-26T09:00:05.769Z,25.77
2017-05-26T09:01:06.522Z,26.34
2017-05-26T09:02:07.274Z,26.37
2017-05-26T09:03:08.026Z,26.43
2017-05-26T09:04:09.057Z,27.03
2017-05-26T09:05:09.812Z,27.40
2017-05-26T09:06:10.565Z,27.52
2017-05-26T09:07:11.320Z,27.78
2017-05-26T09:08:12.075Z,28.01
2017-05-26T09:09:13.129Z,28.10
2017-05-26T09:10:13.881Z,28.20
2017-05-26T09:11:14.635Z,28.38
2017-05-26T09:12:15.391Z,28.05
2017-05-26T09:13:16.143Z,28.20
2017-05-26T09:14:17.149Z,28.08
2017-05-26T09:15:17.904Z,28.14
2017-05-26T09:16:18.658Z,28.23
2017-05-26T09:17:19.412Z,28.15
2017-05-26T09:18:20.171Z,28.66
2017-05-26T09:19:21.200Z,28.76
2017-05-26T09:20:21.979Z,28.75
2017-05-26T09:21:22.732Z,28.93
2017-05-26T09:22:23.487Z,29.17
2017-05-26T09:23:24.242Z,29.20
2017-05-26T09:24:25.247Z,29.35
2017-05-26T09:25:26.007Z,29.69
2017-05-26T09:26:26.755Z,29.87
2017-05-26T09:27:27.507Z,30.06
2017-05-26T09:28:28.259Z,30.35
2017-05-26T09:29:29.260Z,30.68
2017-05-26T09:30:30.016Z,31.09
2017-05-26T09:31:30.771Z,31.37
2017-05-26T09:32:31.523Z,31.18
2017-05-26T09:33:32.275Z,31.05
2017-05-26T09:34:33.280Z,30.73
2017-05-26T09:35:34.036Z,31.02
2017-05-26T09:36:34.789Z,31.24
2017-05-26T09:37:35.542Z,31.29
2017-05-26T09:38:36.320Z,31.29
2017-05-26T09:39:37.321Z,31.40
2017-05-26T09:40:38.073Z,30.50
2017-05-26T09:41:38.819Z,29.26
2017-05-26T09:42:39.568Z,28.42
2017-05-26T09:43:40.348Z,28.47
2017-05-26T09:44:41.349Z,28.64
2017-05-26T09:45:42.105Z,28.94
2017-05-26T09:46:42.861Z,29.08
2017-05-26T09:47:43.618Z,28.93
2017-05-26T09:48:44.397Z,29.12
2017-05-26T09:49:45.401Z,29.17
2017-05-26T09:50:46.158Z,29.47
2017-05-26T09:51:46.912Z,29.65
2017-05-26T09:52:47.666Z,29.91
2017-05-26T09:53:48.419Z,29.90
2017-05-26T09:54:49.475Z,30.34
2017-05-26T09:55:50.231Z,30.46
2017-05-26T09:56:50.985Z,30.83
2017-05-26T09:57:51.741Z,30.80
2017-05-26T09:58:52.491Z,30.24
2017-05-26T09:59:53.493Z,29.81
2017-05-26T10:00:54.253Z,29.49
2017-05-26T10:01:54.997Z,29.50
2017-05-26T10:02:55.749Z,30.00
2017-05-26T10:03:56.499Z,30.40
2017-05-26T10:04:57.525Z,30.81
2017-05-26T10:05:58.275Z,31.09
2017-05-26T10:06:59.028Z,31.02
2017-05-26T10:07:59.779Z,31.44
2017-05-26T10:09:00.532Z,31.61
2017-05-26T10:10:01.532Z,31.93
2017-05-26T10:11:02.280Z,32.18
2017-05-26T10:12:03.032Z,32.29
2017-05-26T10:13:03.783Z,32.00
2017-05-26T10:14:04.537Z,32.48
2017-05-26T10:15:05.538Z,32.48
2017-05-26T10:16:06.291Z,32.36
2017-05-26T10:17:07.046Z,31.80
2017-05-26T10:18:07.799Z,30.37
2017-05-26T10:19:08.549Z,30.87
2017-05-26T10:20:09.553Z,30.83
2017-05-26T10:21:10.308Z,30.02
2017-05-26T10:22:11.062Z,30.32
2017-05-26T10:23:11.815Z,30.05
2017-05-26T10:24:12.573Z,30.47
2017-05-26T10:25:13.571Z,30.73
2017-05-26T10:26:14.350Z,31.06
2017-05-26T10:27:15.101Z,31.47
2017-05-26T10:28:15.852Z,30.92
2017-05-26T10:29:16.603Z,30.32
2017-05-26T10:30:17.604Z,30.48
2017-05-26T10:31:18.363Z,30.80
2017-05-26T10:32:19.110Z,31.12
2017-05-26T10:33:19.861Z,31.59
2017-05-26T10:34:20.616Z,31.78
2017-05-26T10:35:21.619Z,32.15
2017-05-26T10:36:22.371Z,32.26
2017-05-26T10:37:23.124Z,32.52
2017-05-26T10:38:23.873Z,32.58
2017-05-26T10:39:24.627Z,32.74
2017-05-26T10:40:25.655Z,33.04
2017-05-26T10:41:26.406Z,33.05
2017-05-26T10:42:27.157Z,31.21
2017-05-26T10:43:27.911Z,29.41
2017-05-26T10:44:28.668Z,30.15
2017-05-26T10:45:29.666Z,30.37
2017-05-26T10:46:30.419Z,30.46
2017-05-26T10:47:31.173Z,31.00
2017-05-26T10:48:31.922Z,31.78
2017-05-26T10:49:32.674Z,31.70
2017-05-26T10:50:33.677Z,31.94
2017-05-26T10:51:34.434Z,32.31
2017-05-26T10:52:35.182Z,32.78
2017-05-26T10:53:35.937Z,32.48
2017-05-26T10:54:36.692Z,32.31
2017-05-26T10:55:37.694Z,32.23
2017-05-26T10:56:38.448Z,32.29
2017-05-26T10:57:39.199Z,32.36
2017-05-26T10:58:39.952Z,32.34
2017-05-26T10:59:40.708Z,32.56
2017-05-26T11:00:41.708Z,32.65
2017-05-26T11:01:42.459Z,33.11
2017-05-26T11:02:43.217Z,33.02
2017-05-26T11:03:43.966Z,31.80
2017-05-26T11:04:44.719Z,30.97
2017-05-26T11:05:45.725Z,31.43
2017-05-26T11:06:46.475Z,31.77
2017-05-26T11:07:47.229Z,32.15
2017-05-26T11:08:47.982Z,31.96
2017-05-26T11:09:48.734Z,32.33
2017-05-26T11:10:49.736Z,32.58
2017-05-26T11:11:50.488Z,32.33
2017-05-26T11:12:51.240Z,31.39
2017-05-26T11:13:51.994Z,31.58
2017-05-26T11:14:52.747Z,30.97
2017-05-26T11:15:53.748Z,31.36
2017-05-26T11:16:54.503Z,31.94
2017-05-26T11:17:55.256Z,32.18
2017-05-26T11:18:56.014Z,32.03
2017-05-26T11:19:56.761Z,31.87
2017-05-26T11:20:57.764Z,31.90
2017-05-26T11:21:58.517Z,32.36
2017-05-26T11:22:59.270Z,32.45
2017-05-26T11:24:00.019Z,32.82
2017-05-26T11:25:00.774Z,32.80
2017-05-26T11:26:01.829Z,31.94
2017-05-26T11:27:02.584Z,31.85
2017-05-26T11:28:03.333Z,31.89
2017-05-26T11:29:04.087Z,31.39
2017-05-26T11:30:04.842Z,32.04
2017-05-26T11:31:05.870Z,32.49
2017-05-26T11:32:06.620Z,32.34
2017-05-26T11:33:07.371Z,32.37
2017-05-26T11:34:08.127Z,32.52
2017-05-26T11:35:08.881Z,32.83
2017-05-26T11:36:09.885Z,32.90
2017-05-26T11:37:10.635Z,33.05
2017-05-26T11:38:11.415Z,33.53
2017-05-26T11:39:12.192Z,33.39
2017-05-26T11:40:12.943Z,33.14
2017-05-26T11:41:13.948Z,33.27
2017-05-26T11:42:14.699Z,33.23
2017-05-26T11:43:15.450Z,32.80
2017-05-26T11:44:16.205Z,33.30
2017-05-26T11:45:16.959Z,33.12
2017-05-26T11:46:17.963Z,32.90
2017-05-26T11:47:18.716Z,33.07
2017-05-26T11:48:19.467Z,32.90
2017-05-26T11:49:20.222Z,32.60
2017-05-26T11:50:20.974Z,32.60
2017-05-26T11:51:22.001Z,32.71
2017-05-26T11:52:22.751Z,32.77
2017-05-26T11:53:23.511Z,32.77
2017-05-26T11:54:24.256Z,32.78
2017-05-26T11:55:25.007Z,32.85
2017-05-26T11:56:26.012Z,32.33
2017-05-26T11:57:26.787Z,32.31
2017-05-26T11:58:27.561Z,32.51
2017-05-26T11:59:28.315Z,32.71
2017-05-26T12:00:29.069Z,32.53
2017-05-26T12:01:30.072Z,33.04
2017-05-26T12:02:30.824Z,33.64
2017-05-26T12:03:31.602Z,33.31
2017-05-26T12:04:32.357Z,33.69
2017-05-26T12:05:33.110Z,33.76
2017-05-26T12:06:34.115Z,34.18
2017-05-26T12:07:34.867Z,33.45
2017-05-26T12:08:35.644Z,34.03
2017-05-26T12:09:36.422Z,34.43
2017-05-26T12:10:37.178Z,34.50
2017-05-26T12:11:38.184Z,34.80
2017-05-26T12:12:38.935Z,33.24
2017-05-26T12:13:39.688Z,33.80
2017-05-26T12:14:40.439Z,33.57
2017-05-26T12:15:41.195Z,32.80
2017-05-26T12:16:42.199Z,32.90
2017-05-26T12:17:42.950Z,33.58
2017-05-26T12:18:43.704Z,33.98
2017-05-26T12:19:44.455Z,34.21
2017-05-26T12:20:45.208Z,34.57
2017-05-26T12:21:46.212Z,34.58
2017-05-26T12:22:46.962Z,35.11
2017-05-26T12:23:47.740Z,35.58
2017-05-26T12:24:48.492Z,35.80
2017-05-26T12:25:49.243Z,36.08
2017-05-26T12:26:50.249Z,36.24
2017-05-26T12:27:51.002Z,36.33
2017-05-26T12:28:51.755Z,35.79
2017-05-26T12:29:52.507Z,35.88
2017-05-26T12:30:53.263Z,35.79
2017-05-26T12:31:54.266Z,35.88
2017-05-26T12:32:55.019Z,35.80
2017-05-26T12:33:55.770Z,36.25
2017-05-26T12:34:56.527Z,36.17
2017-05-26T12:35:57.281Z,36.12
2017-05-26T12:36:58.283Z,36.18
2017-05-26T12:37:59.034Z,35.18
2017-05-26T12:38:59.791Z,34.61
2017-05-26T12:40:00.542Z,34.27
2017-05-26T12:41:01.293Z,33.59
2017-05-26T12:42:02.296Z,34.21
2017-05-26T12:43:03.048Z,34.73
2017-05-26T12:44:03.827Z,35.11
2017-05-26T12:45:04.577Z,35.49
2017-05-26T12:46:05.332Z,35.18
2017-05-26T12:47:06.336Z,35.26
2017-05-26T12:48:07.087Z,34.88
2017-05-26T12:49:07.842Z,34.86
2017-05-26T12:50:08.594Z,34.20
2017-05-26T12:51:09.345Z,34.39
2017-05-26T12:52:10.346Z,34.58
2017-05-26T12:53:11.101Z,34.77
2017-05-26T12:54:11.858Z,34.64
2017-05-26T12:55:12.606Z,34.61
2017-05-26T12:56:13.360Z,35.18
2017-05-26T12:57:14.361Z,35.41
2017-05-26T12:58:15.113Z,35.44
2017-05-26T12:59:15.866Z,35.83
2017-05-26T13:00:16.644Z,35.89
2017-05-26T13:01:17.399Z,36.25
2017-05-26T13:02:18.399Z,36.54